Kayl, Luxembourg
Current Conditions -  °F | °C
As of 2:20 PM on Thursday 23 Oct 2014 (Local Time) from ELLX Reporting Station
Drizzle Drizzle  
Wind Chill: 46°   Ceiling: 1000
Heat Index: 48°   Visibility: 5mi
Dew Point: 45°   Wind: 6mph
Humidity: 87%   Direction: 250°WSW
Pressure: 30.27"   Gusts: NA
Location:  49.49°N, 6.04°E
Report Text: ELLX 231220Z 25005KT 200V270 8000 -DZ BKN010 BKN017 09/07 Q1025 NOSIG
Loading
Personal Weather Stations






























Interactive Weather Map
Tropical Storm Tracking
New forecast layout! Learn more

10-Day Weather Forecast

Advertisements
Track Severe Weather on mobile